Time;durP1;ratioP1;P1;durP2;ratioP2;P2;SDS_P1;SDS_P2;PMS_P1;PMS_P2;Temp;Humidity;BMP_temperature;BMP_pressure;BME280_temperature;BME280_humidity;BME280_pressure;Samples;Min_cycle;Max_cycle;Signal;HPM_P1;HPM_P2
2022/07/22 00:00:53;;;;;;;6.13;1.40;;;19.80;99.80;;;;;;4933609;29;20052;-53
2022/07/22 00:03:20;;;;;;;6.25;1.70;;;19.90;99.90;;;;;;4933416;29;20071;-55
2022/07/22 00:05:47;;;;;;;15.45;3.92;;;19.90;99.90;;;;;;4933639;29;20542;-55
2022/07/22 00:08:14;;;;;;;10.32;1.88;;;19.90;99.80;;;;;;4933606;29;20090;-52
2022/07/22 00:10:41;;;;;;;8.57;1.33;;;19.80;99.90;;;;;;4933516;29;20583;-54
2022/07/22 00:13:07;;;;;;;7.63;1.38;;;19.70;99.90;;;;;;4933491;29;20079;-53
2022/07/22 00:15:34;;;;;;;10.85;2.17;;;19.70;99.90;;;;;;4933458;29;20059;-55
2022/07/22 00:18:01;;;;;;;6.07;1.83;;;19.70;99.90;;;;;;4590738;28;10000275;-54
2022/07/22 00:20:28;;;;;;;8.50;1.75;;;19.80;99.90;;;;;;4931165;29;20471;-55
2022/07/22 00:22:55;;;;;;;11.50;1.95;;;19.80;99.90;;;;;;4933193;29;20086;-55
2022/07/22 00:25:21;;;;;;;7.40;1.70;;;19.80;99.90;;;;;;4933478;29;20138;-54
2022/07/22 00:27:48;;;;;;;4.45;1.38;;;19.70;99.90;;;;;;4933025;29;20139;-53
2022/07/22 00:30:15;;;;;;;3.50;1.15;;;19.70;99.90;;;;;;4933390;29;20180;-54
2022/07/22 00:32:42;;;;;;;15.52;4.55;;;19.70;99.90;;;;;;4933376;29;20063;-55
2022/07/22 00:35:09;;;;;;;13.50;2.38;;;19.60;99.90;;;;;;4932820;29;20076;-54
2022/07/22 00:37:36;;;;;;;9.95;1.70;;;19.50;99.90;;;;;;4933085;29;20131;-55
2022/07/22 00:40:03;;;;;;;11.02;1.77;;;19.60;99.90;;;;;;4933144;29;20080;-53
2022/07/22 00:42:30;;;;;;;7.15;1.25;;;19.50;99.90;;;;;;4933029;29;20048;-54
2022/07/22 00:44:57;;;;;;;4.63;1.50;;;19.50;99.90;;;;;;4932913;29;20055;-52
2022/07/22 00:47:23;;;;;;;11.52;2.80;;;19.50;99.90;;;;;;4932947;29;20043;-54
2022/07/22 00:49:50;;;;;;;6.22;1.95;;;19.50;99.90;;;;;;4933048;29;20051;-54
2022/07/22 00:52:18;;;;;;;7.20;1.55;;;19.50;99.90;;;;;;4932874;29;20078;-52
2022/07/22 00:54:45;;;;;;;9.10;2.03;;;19.50;99.90;;;;;;4932645;29;20055;-53
2022/07/22 00:57:12;;;;;;;9.05;2.20;;;19.50;99.90;;;;;;4931469;29;20664;-55
2022/07/22 00:59:39;;;;;;;9.10;1.48;;;19.50;99.90;;;;;;4932828;29;20517;-54
2022/07/22 01:02:06;;;;;;;8.38;1.63;;;19.40;99.90;;;;;;4932626;29;20471;-55
2022/07/22 01:04:32;;;;;;;9.73;2.05;;;19.40;99.90;;;;;;4931980;29;20135;-51
2022/07/22 01:06:59;;;;;;;9.45;1.98;;;19.40;99.90;;;;;;4932807;29;20071;-55
2022/07/22 01:09:26;;;;;;;13.35;2.13;;;19.40;99.90;;;;;;4932568;29;20146;-53
2022/07/22 01:11:53;;;;;;;9.82;2.08;;;19.40;99.90;;;;;;4932706;29;20130;-54
2022/07/22 01:14:19;;;;;;;12.13;1.60;;;19.40;99.90;;;;;;4932060;29;20477;-52
2022/07/22 01:16:46;;;;;;;9.30;1.27;;;19.40;99.90;;;;;;4930653;29;20059;-53
2022/07/22 01:19:15;;;;;;;9.15;2.28;;;19.50;99.90;;;;;;4932364;29;20051;-51
2022/07/22 01:21:42;;;;;;;11.57;3.30;;;19.50;99.90;;;;;;4932280;29;20090;-55
2022/07/22 01:24:09;;;;;;;12.00;2.63;;;19.40;99.90;;;;;;4931982;29;20118;-55
2022/07/22 01:26:36;;;;;;;6.65;1.80;;;19.30;99.90;;;;;;4932247;29;20122;-55
2022/07/22 01:29:03;;;;;;;8.13;1.55;;;19.30;99.90;;;;;;4932149;29;20079;-54
2022/07/22 01:31:30;;;;;;;12.73;2.40;;;19.20;99.90;;;;;;4932218;29;20048;-54
2022/07/22 01:33:57;;;;;;;6.22;1.38;;;19.20;99.90;;;;;;4931805;29;20075;-51
2022/07/22 01:36:24;;;;;;;8.20;1.35;;;19.30;99.90;;;;;;4931817;29;20127;-54
2022/07/22 01:38:50;;;;;;;4.82;1.45;;;19.30;99.90;;;;;;4930538;29;20079;-55
2022/07/22 01:41:18;;;;;;;5.57;1.25;;;19.30;99.90;;;;;;4931748;29;20044;-52
2022/07/22 01:43:44;;;;;;;6.85;1.55;;;19.30;99.90;;;;;;4931896;29;20048;-53
2022/07/22 01:46:11;;;;;;;9.80;1.63;;;19.30;99.90;;;;;;4946327;29;20567;-55
2022/07/22 01:48:40;;;;;;;6.18;1.20;;;19.20;99.90;;;;;;4932042;29;20660;-55
2022/07/22 01:51:06;;;;;;;9.82;1.88;;;19.10;99.90;;;;;;4931583;29;20561;-55
2022/07/22 01:53:33;;;;;;;7.50;1.60;;;19.20;99.90;;;;;;4931938;29;20428;-53
2022/07/22 01:56:00;;;;;;;12.30;1.58;;;19.10;99.90;;;;;;4931723;29;20174;-52
2022/07/22 01:58:27;;;;;;;9.23;1.30;;;19.10;99.90;;;;;;4931465;29;20421;-55
2022/07/22 02:00:53;;;;;;;9.32;1.58;;;19.10;99.90;;;;;;4931457;29;20139;-55
2022/07/22 02:03:20;;;;;;;6.43;1.50;;;19.10;99.90;;;;;;4930672;29;20097;-53
2022/07/22 02:05:47;;;;;;;11.73;1.50;;;19.10;99.90;;;;;;4931619;29;20061;-53
2022/07/22 02:08:14;;;;;;;12.95;1.17;;;19.10;99.90;;;;;;4931403;29;20570;-53
2022/07/22 02:10:41;;;;;;;5.32;1.77;;;19.10;99.90;;;;;;4931403;29;20048;-55
2022/07/22 02:13:07;;;;;;;7.22;1.80;;;19.10;99.90;;;;;;4931498;29;20079;-55
2022/07/22 02:15:34;;;;;;;7.70;1.90;;;19.10;99.90;;;;;;4931173;29;20094;-54
2022/07/22 02:18:13;;;;;;;5.40;1.63;;;19.00;99.90;;;;;;4931377;29;20051;-52
2022/07/22 02:20:39;;;;;;;4.68;1.40;;;19.00;99.90;;;;;;4931510;29;20154;-54
2022/07/22 02:23:06;;;;;;;10.02;2.80;;;19.00;99.90;;;;;;4931296;29;20091;-54
2022/07/22 02:25:33;;;;;;;8.45;1.60;;;19.10;99.90;;;;;;4930970;29;20130;-55
2022/07/22 02:28:00;;;;;;;4.18;1.30;;;19.00;99.90;;;;;;4931275;29;20123;-52
2022/07/22 02:30:27;;;;;;;6.18;1.50;;;19.00;99.90;;;;;;4930075;29;20079;-50
2022/07/22 02:32:54;;;;;;;7.85;1.85;;;19.00;99.90;;;;;;4931041;29;20554;-54
2022/07/22 02:35:20;;;;;;;13.93;2.10;;;19.00;99.90;;;;;;4931184;29;20506;-55
2022/07/22 02:37:47;;;;;;;3.53;1.40;;;19.00;99.90;;;;;;4930874;29;20664;-54
2022/07/22 02:40:14;;;;;;;6.82;1.42;;;19.00;99.90;;;;;;4931136;29;20044;-54
2022/07/22 02:42:41;;;;;;;7.38;1.85;;;18.90;99.90;;;;;;4930622;29;20047;-53
2022/07/22 02:45:08;;;;;;;11.10;2.28;;;18.90;99.90;;;;;;4930896;29;20091;-55
2022/07/22 02:47:35;;;;;;;13.80;2.00;;;18.90;99.90;;;;;;4930702;29;20507;-54
2022/07/22 02:50:02;;;;;;;6.55;1.10;;;18.90;99.90;;;;;;4927812;29;20044;-52
2022/07/22 02:52:29;;;;;;;5.15;1.45;;;19.00;99.90;;;;;;4930953;29;20139;-53
2022/07/22 02:54:55;;;;;;;7.30;1.27;;;18.90;99.90;;;;;;4931043;29;20098;-54
2022/07/22 02:57:22;;;;;;;11.88;2.30;;;18.90;99.90;;;;;;4930764;29;20141;-53
2022/07/22 02:59:49;;;;;;;5.55;1.17;;;18.90;99.90;;;;;;4930597;29;20052;-56
2022/07/22 03:02:16;;;;;;;5.78;1.67;;;18.90;99.90;;;;;;4930727;29;20130;-54
2022/07/22 03:04:42;;;;;;;8.02;1.63;;;18.90;99.90;;;;;;4931043;29;20479;-56
2022/07/22 03:07:09;;;;;;;10.93;2.58;;;18.90;99.90;;;;;;4930614;29;20047;-53
2022/07/22 03:09:36;;;;;;;8.10;1.30;;;18.90;99.90;;;;;;4930799;29;20123;-53
2022/07/22 03:12:03;;;;;;;9.15;1.50;;;18.90;99.90;;;;;;4930773;29;20130;-55
2022/07/22 03:14:30;;;;;;;4.00;1.02;;;18.80;99.90;;;;;;4921359;29;20055;-54
2022/07/22 03:16:56;;;;;;;4.82;1.10;;;18.80;99.90;;;;;;4930559;29;20079;-55
2022/07/22 03:19:23;;;;;;;6.97;1.75;;;18.80;99.90;;;;;;4930899;29;20578;-53
2022/07/22 03:21:50;;;;;;;7.25;2.30;;;18.70;99.90;;;;;;4930514;29;20147;-53
2022/07/22 03:24:17;;;;;;;8.27;1.70;;;18.70;99.90;;;;;;4930454;29;20047;-51
2022/07/22 03:26:44;;;;;;;6.53;1.92;;;18.70;99.90;;;;;;4930541;29;20095;-54
2022/07/22 03:29:10;;;;;;;11.68;2.75;;;18.70;99.90;;;;;;4930744;29;20136;-55
2022/07/22 03:31:37;;;;;;;4.70;1.50;;;18.70;99.90;;;;;;4930767;29;20083;-51
2022/07/22 03:34:04;;;;;;;5.53;1.52;;;18.70;99.90;;;;;;4930245;29;20044;-52
2022/07/22 03:36:31;;;;;;;12.38;2.00;;;18.70;99.90;;;;;;4930719;29;20492;-51
2022/07/22 03:38:58;;;;;;;7.70;1.58;;;18.70;99.90;;;;;;4931506;29;20138;-56
2022/07/22 03:41:25;;;;;;;5.60;1.80;;;18.70;99.90;;;;;;4934066;29;20126;-52
2022/07/22 03:43:52;;;;;;;6.28;1.52;;;18.70;99.90;;;;;;4933955;29;20648;-53
2022/07/22 03:46:19;;;;;;;10.23;2.28;;;18.60;99.90;;;;;;4933962;29;20055;-53
2022/07/22 03:48:45;;;;;;;9.73;1.63;;;18.70;99.90;;;;;;4934121;29;20094;-55
2022/07/22 03:51:12;;;;;;;4.93;0.93;;;18.70;99.90;;;;;;4934094;29;20112;-52
2022/07/22 03:53:39;;;;;;;9.88;2.95;;;18.60;99.90;;;;;;4933920;29;20178;-53
2022/07/22 03:56:06;;;;;;;12.27;1.77;;;18.60;99.90;;;;;;4933822;29;20048;-52
2022/07/22 03:58:33;;;;;;;5.80;1.50;;;18.60;99.90;;;;;;4933779;29;20131;-53
2022/07/22 04:01:00;;;;;;;7.65;1.60;;;18.60;99.90;;;;;;4933919;29;20043;-53
2022/07/22 04:03:27;;;;;;;10.48;2.28;;;18.60;99.90;;;;;;4931616;29;20044;-51
2022/07/22 04:05:53;;;;;;;8.18;1.85;;;18.60;99.90;;;;;;4932978;29;20083;-53
2022/07/22 04:08:20;;;;;;;3.25;1.77;;;18.60;99.90;;;;;;4932688;29;20126;-52
2022/07/22 04:10:47;;;;;;;8.10;1.80;;;18.50;99.90;;;;;;4931564;29;20047;-52
2022/07/22 04:13:14;;;;;;;6.85;1.40;;;18.50;99.90;;;;;;4933619;29;20082;-53
2022/07/22 04:15:40;;;;;;;8.25;2.08;;;18.50;99.90;;;;;;4933102;29;20415;-55
2022/07/22 04:18:07;;;;;;;6.22;1.38;;;18.50;99.90;;;;;;4933691;29;20507;-55
2022/07/22 04:20:34;;;;;;;11.35;2.03;;;18.40;99.90;;;;;;4933439;29;20082;-53
2022/07/22 04:23:01;;;;;;;10.80;2.13;;;18.40;99.90;;;;;;4933386;29;20126;-54
2022/07/22 04:25:27;;;;;;;12.68;1.95;;;18.40;99.90;;;;;;4933326;29;20040;-54
2022/07/22 04:27:54;;;;;;;7.70;1.45;;;18.40;99.90;;;;;;4932909;29;20091;-54
2022/07/22 04:30:21;;;;;;;5.28;1.80;;;18.30;99.90;;;;;;4933384;29;20130;-52
2022/07/22 04:32:48;;;;;;;8.82;2.00;;;18.30;99.90;;;;;;4933208;29;20084;-55
2022/07/22 04:35:15;;;;;;;11.35;2.10;;;18.30;99.90;;;;;;4933202;29;20127;-52
2022/07/22 04:37:41;;;;;;;7.18;1.42;;;18.30;99.90;;;;;;4933117;29;20134;-57
2022/07/22 04:40:09;;;;;;;9.27;1.63;;;18.20;99.90;;;;;;4933293;29;20051;-53
2022/07/22 04:42:36;;;;;;;6.82;1.70;;;18.30;99.90;;;;;;4933376;29;20099;-58
2022/07/22 04:45:03;;;;;;;6.53;2.35;;;18.30;99.90;;;;;;4933046;29;20055;-54
2022/07/22 04:47:30;;;;;;;6.10;1.67;;;18.30;99.90;;;;;;4932262;29;20087;-52
2022/07/22 04:49:56;;;;;;;3.55;1.15;;;18.40;99.90;;;;;;4932395;29;20128;-52
2022/07/22 04:52:23;;;;;;;6.18;1.60;;;18.30;99.90;;;;;;4932196;29;20047;-54
2022/07/22 04:54:51;;;;;;;8.88;1.48;;;18.40;99.90;;;;;;4932605;29;20060;-52
2022/07/22 04:57:17;;;;;;;9.00;1.77;;;18.40;99.90;;;;;;4932145;29;20047;-54
2022/07/22 04:59:44;;;;;;;5.10;1.38;;;18.40;99.90;;;;;;4932724;29;20411;-51
2022/07/22 05:02:11;;;;;;;4.78;1.90;;;18.40;99.90;;;;;;4932319;29;20103;-56
2022/07/22 05:04:38;;;;;;;9.38;2.13;;;18.50;99.90;;;;;;4932524;29;20346;-53
2022/07/22 05:07:05;;;;;;;10.57;1.98;;;18.40;99.90;;;;;;4932062;29;20633;-53
2022/07/22 05:09:32;;;;;;;10.25;2.78;;;18.50;99.90;;;;;;4932582;29;20082;-48
2022/07/22 05:11:58;;;;;;;5.88;1.33;;;18.40;99.90;;;;;;4932465;29;20111;-55
2022/07/22 05:14:25;;;;;;;9.05;1.63;;;18.40;99.90;;;;;;4932126;29;20514;-51
2022/07/22 05:16:52;;;;;;;8.32;1.63;;;18.30;99.90;;;;;;4932146;29;20052;-52
2022/07/22 05:19:20;;;;;;;10.80;3.75;;;18.30;99.90;;;;;;4932061;29;20103;-53
2022/07/22 05:21:47;;;;;;;7.65;1.25;;;18.30;99.90;;;;;;4932252;29;20075;-56
2022/07/22 05:24:14;;;;;;;6.00;1.67;;;18.40;99.90;;;;;;4932108;29;20281;-54
2022/07/22 05:26:40;;;;;;;7.35;2.03;;;18.30;99.90;;;;;;4931545;29;20138;-54
2022/07/22 05:29:07;;;;;;;10.85;3.40;;;18.40;99.90;;;;;;4932073;29;20047;-53
2022/07/22 05:31:34;;;;;;;12.70;2.13;;;18.30;99.90;;;;;;4931642;29;20044;-53
2022/07/22 05:34:02;;;;;;;6.47;1.58;;;18.30;99.90;;;;;;4931934;29;20490;-53
2022/07/22 05:36:29;;;;;;;7.75;2.05;;;18.30;99.90;;;;;;4932003;29;20100;-51
2022/07/22 05:38:56;;;;;;;12.10;3.50;;;18.40;99.90;;;;;;4931909;29;20126;-52
2022/07/22 05:41:24;;;;;;;9.07;2.75;;;18.40;99.90;;;;;;4932231;29;20048;-51
2022/07/22 05:43:50;;;;;;;8.93;4.10;;;18.50;99.90;;;;;;4931639;29;20054;-54
2022/07/22 05:46:17;;;;;;;8.27;3.33;;;18.50;99.90;;;;;;4931938;29;20582;-54
2022/07/22 05:48:44;;;;;;;17.98;4.13;;;18.50;99.90;;;;;;4930600;29;20137;-53
2022/07/22 05:51:12;;;;;;;11.43;4.85;;;18.60;99.90;;;;;;4932035;29;20070;-54
2022/07/22 05:53:39;;;;;;;13.00;5.63;;;18.50;99.90;;;;;;4931790;29;20054;-54
2022/07/22 05:56:07;;;;;;;11.25;5.55;;;18.60;99.90;;;;;;4930525;29;20543;-54
2022/07/22 05:58:34;;;;;;;24.23;6.68;;;18.50;99.90;;;;;;4931643;29;20043;-48
2022/07/22 06:01:01;;;;;;;19.75;5.63;;;18.60;99.90;;;;;;4931706;29;20143;-52
2022/07/22 06:03:27;;;;;;;15.90;6.13;;;18.60;99.90;;;;;;4931447;29;20039;-54
2022/07/22 06:05:54;;;;;;;16.52;5.25;;;18.70;99.90;;;;;;4930927;29;20075;-50
2022/07/22 06:08:21;;;;;;;14.57;4.50;;;18.70;99.90;;;;;;4946268;29;20040;-52
2022/07/22 06:10:48;;;;;;;9.73;3.80;;;18.70;99.90;;;;;;4942530;29;20086;-54
2022/07/22 06:13:14;;;;;;;8.60;3.28;;;18.70;99.90;;;;;;4938987;29;20079;-53
2022/07/22 06:15:41;;;;;;;14.82;5.15;;;18.80;99.90;;;;;;4936792;29;20083;-51
2022/07/22 06:18:08;;;;;;;9.82;3.10;;;18.80;99.90;;;;;;4589621;28;10000137;-53
2022/07/22 06:20:35;;;;;;;8.32;2.95;;;18.70;99.90;;;;;;4929360;29;20043;-49
2022/07/22 06:23:02;;;;;;;9.68;2.75;;;18.70;99.90;;;;;;4929299;29;20142;-54
2022/07/22 06:25:28;;;;;;;10.98;4.10;;;18.70;99.90;;;;;;4928479;29;20474;-53
2022/07/22 06:28:07;;;;;;;13.20;2.95;;;18.80;99.90;;;;;;4928557;29;20051;-52
2022/07/22 06:30:34;;;;;;;11.07;4.00;;;18.80;99.90;;;;;;4928671;29;20048;-50
2022/07/22 06:33:01;;;;;;;8.77;3.60;;;18.80;99.90;;;;;;4928525;29;20079;-52
2022/07/22 06:35:28;;;;;;;10.75;2.80;;;18.80;99.90;;;;;;4928110;29;20062;-53
2022/07/22 06:37:54;;;;;;;12.20;3.05;;;18.90;99.90;;;;;;4928147;29;20603;-51
2022/07/22 06:40:41;;;;;;;7.80;2.35;;;18.90;99.90;;;;;;4928171;29;20534;-55
2022/07/22 06:43:08;;;;;;;11.20;2.05;;;18.90;99.90;;;;;;4928631;29;20277;-50
2022/07/22 06:45:35;;;;;;;11.88;2.45;;;18.90;99.90;;;;;;4927824;29;20158;-53
2022/07/22 06:48:02;;;;;;;6.00;1.70;;;19.00;99.90;;;;;;4927933;29;20051;-54
2022/07/22 06:50:29;;;;;;;7.38;2.30;;;19.00;99.90;;;;;;4928173;29;20227;-55
2022/07/22 06:52:56;;;;;;;12.85;2.00;;;19.00;99.90;;;;;;4927520;29;20054;-51
2022/07/22 06:55:23;;;;;;;17.75;3.08;;;18.90;99.90;;;;;;4927516;29;20056;-51
2022/07/22 06:57:50;;;;;;;17.08;2.17;;;18.80;99.90;;;;;;4927938;29;20056;-53
2022/07/22 07:00:17;;;;;;;10.73;2.40;;;18.80;99.90;;;;;;4928029;29;20044;-53
2022/07/22 07:02:44;;;;;;;9.77;2.25;;;18.90;99.90;;;;;;4927651;29;20048;-51
2022/07/22 07:05:11;;;;;;;10.00;1.98;;;18.90;99.90;;;;;;4927832;29;20055;-55
2022/07/22 07:07:46;;;;;;;5.18;1.90;;;18.90;99.90;;;;;;4927541;29;20292;-53
2022/07/22 07:10:15;;;;;;;6.70;1.30;;;18.90;99.90;;;;;;4928312;29;20040;-52
2022/07/22 07:12:42;;;;;;;7.00;1.50;;;18.90;99.90;;;;;;4926489;29;20245;-51
2022/07/22 07:15:09;;;;;;;15.38;2.83;;;19.00;99.90;;;;;;4930364;29;20067;-53
2022/07/22 07:17:51;;;;;;;14.02;2.25;;;19.10;99.90;;;;;;4931565;29;20070;-53
2022/07/22 07:20:18;;;;;;;16.00;2.38;;;19.10;99.90;;;;;;4931319;29;20086;-54
2022/07/22 07:22:45;;;;;;;11.00;1.20;;;19.10;99.90;;;;;;4932065;29;20114;-52
2022/07/22 07:25:12;;;;;;;9.00;2.22;;;19.20;99.90;;;;;;4932145;29;20260;-51
2022/07/22 07:27:50;;;;;;;12.00;2.65;;;19.30;99.90;;;;;;4948300;29;20059;-52
2022/07/22 07:30:20;;;;;;;11.93;2.13;;;19.40;99.90;;;;;;4942678;29;20051;-51
2022/07/22 07:32:48;;;;;;;5.22;1.65;;;19.50;99.90;;;;;;4946546;29;20043;-53
2022/07/22 07:35:14;;;;;;;9.93;2.47;;;19.50;99.90;;;;;;4947126;29;20360;-53
2022/07/22 07:37:42;;;;;;;12.18;2.33;;;19.60;99.90;;;;;;4933287;29;20142;-54
2022/07/22 07:40:09;;;;;;;6.15;1.70;;;19.60;99.90;;;;;;4927305;29;20098;-56
2022/07/22 07:42:36;;;;;;;10.38;2.03;;;19.70;99.90;;;;;;4937328;29;20052;-53
2022/07/22 07:45:11;;;;;;;9.20;2.25;;;19.80;99.80;;;;;;4937237;29;20132;-54
2022/07/22 07:47:38;;;;;;;12.27;2.95;;;19.80;99.80;;;;;;4938012;29;20463;-54
2022/07/22 07:50:07;;;;;;;7.63;1.50;;;19.90;99.80;;;;;;4938639;29;20101;-53
2022/07/22 07:52:41;;;;;;;12.93;2.75;;;20.00;99.60;;;;;;4932866;29;20051;-49
2022/07/22 07:55:17;;;;;;;11.55;2.05;;;20.10;99.50;;;;;;4932183;29;20313;-53
2022/07/22 07:57:48;;;;;;;11.32;1.75;;;20.30;99.40;;;;;;4931619;29;20056;-51
2022/07/22 08:00:23;;;;;;;10.57;2.35;;;20.50;98.90;;;;;;4929954;29;20048;-54
2022/07/22 08:02:50;;;;;;;17.35;2.55;;;20.70;98.20;;;;;;4928649;29;20057;-52
2022/07/22 08:05:19;;;;;;;9.48;2.15;;;20.80;98.20;;;;;;4930914;29;20078;-54
2022/07/22 08:07:47;;;;;;;3.58;1.38;;;20.90;97.40;;;;;;4929685;29;20051;-51
2022/07/22 08:10:14;;;;;;;11.25;2.70;;;20.90;97.00;;;;;;4930774;29;20414;-52
2022/07/22 08:13:01;;;;;;;8.02;2.13;;;20.80;96.50;;;;;;4930982;29;20511;-52
2022/07/22 08:15:28;;;;;;;9.65;1.55;;;20.60;96.90;;;;;;4925190;29;20103;-52
2022/07/22 08:17:55;;;;;;;6.50;1.83;;;20.40;97.00;;;;;;4927751;29;20048;-55
2022/07/22 08:20:23;;;;;;;19.13;4.55;;;20.40;97.40;;;;;;4930564;29;20091;-51
2022/07/22 08:22:50;;;;;;;6.13;1.80;;;20.40;97.40;;;;;;4924435;29;20075;-54
2022/07/22 08:25:17;;;;;;;8.77;1.70;;;20.40;97.30;;;;;;4939454;28;20075;-50
2022/07/22 08:27:44;;;;;;;8.05;1.90;;;20.40;97.10;;;;;;4929768;29;20150;-52
2022/07/22 08:30:11;;;;;;;9.85;1.60;;;20.40;97.30;;;;;;4925763;29;20059;-50
2022/07/22 08:32:38;;;;;;;6.18;1.92;;;20.50;97.20;;;;;;4928121;29;20083;-52
2022/07/22 08:35:06;;;;;;;6.53;1.90;;;20.50;97.00;;;;;;4929810;29;20074;-55
2022/07/22 08:37:33;;;;;;;24.92;3.50;;;20.60;97.00;;;;;;4924618;29;20079;-51
2022/07/22 08:40:00;;;;;;;9.70;2.20;;;20.70;97.10;;;;;;4924727;29;20052;-53
2022/07/22 08:42:27;;;;;;;10.40;1.63;;;20.80;96.30;;;;;;4930191;29;20048;-52
2022/07/22 08:44:55;;;;;;;5.55;1.85;;;20.80;96.50;;;;;;4929057;29;20135;-52
2022/07/22 08:47:30;;;;;;;10.55;2.25;;;20.90;96.00;;;;;;4920861;29;20521;-52
2022/07/22 08:50:09;;;;;;;7.90;1.85;;;21.00;96.10;;;;;;4928065;29;20143;-54
2022/07/22 08:52:36;;;;;;;9.45;1.88;;;21.10;95.70;;;;;;4928805;29;20451;-53
2022/07/22 08:55:07;;;;;;;7.30;1.88;;;21.20;95.40;;;;;;4919952;29;20079;-53
2022/07/22 08:57:35;;;;;;;9.70;1.80;;;21.30;94.70;;;;;;4926148;29;20050;-51
2022/07/22 09:00:03;;;;;;;5.35;1.67;;;21.40;94.70;;;;;;4924885;29;20055;-55
2022/07/22 09:02:39;;;;;;;8.15;2.15;;;21.40;93.70;;;;;;4929332;29;20150;-54
2022/07/22 09:05:07;;;;;;;5.05;1.52;;;21.40;93.60;;;;;;4925630;29;20083;-55
2022/07/22 09:07:57;;;;;;;7.80;1.40;;;21.30;94.10;;;;;;4928209;29;20120;-54
2022/07/22 09:10:24;;;;;;;8.07;2.25;;;21.50;93.70;;;;;;4928881;29;20044;-60
2022/07/22 09:12:54;;;;;;;7.35;2.45;;;21.50;93.90;;;;;;4927653;29;20059;-51
2022/07/22 09:15:28;;;;;;;10.32;2.67;;;21.60;94.10;;;;;;4929281;29;20056;-53
2022/07/22 09:17:55;;;;;;;7.88;1.92;;;21.60;93.50;;;;;;4929058;29;20578;-54
2022/07/22 09:20:29;;;;;;;10.02;2.03;;;21.60;93.80;;;;;;4929112;29;20055;-54
2022/07/22 09:22:56;;;;;;;9.55;1.85;;;21.60;93.80;;;;;;4929059;29;20079;-48
2022/07/22 09:25:32;;;;;;;4.18;1.27;;;21.50;93.80;;;;;;4926435;29;20134;-50
2022/07/22 09:28:05;;;;;;;6.30;1.88;;;21.70;93.60;;;;;;4942775;29;20587;-53
2022/07/22 09:30:35;;;;;;;8.35;1.83;;;21.80;92.90;;;;;;4922908;29;20044;-53
2022/07/22 09:33:03;;;;;;;11.23;1.83;;;21.90;92.80;;;;;;4927229;29;20059;-50
2022/07/22 09:35:31;;;;;;;5.45;1.60;;;21.90;92.80;;;;;;4925330;29;20122;-53
2022/07/22 09:37:59;;;;;;;7.20;1.40;;;21.90;92.20;;;;;;4923890;29;20134;-52
2022/07/22 09:40:28;;;;;;;9.20;2.13;;;21.80;92.90;;;;;;4920810;29;20090;-55
2022/07/22 09:42:57;;;;;;;7.82;2.72;;;21.80;93.10;;;;;;4945851;29;20513;-53
2022/07/22 09:45:26;;;;;;;9.85;1.75;;;21.90;93.20;;;;;;4931873;29;20044;-53
2022/07/22 09:47:57;;;;;;;6.07;1.67;;;21.90;92.90;;;;;;4931225;29;20167;-53
2022/07/22 09:50:25;;;;;;;10.35;2.22;;;21.90;93.00;;;;;;4931465;29;20047;-53
2022/07/22 09:52:53;;;;;;;15.18;2.45;;;22.10;93.20;;;;;;4930157;29;20599;-53
2022/07/22 09:55:24;;;;;;;8.52;2.67;;;22.10;92.50;;;;;;4931300;29;20317;-53
2022/07/22 09:57:51;;;;;;;9.88;1.98;;;22.20;93.00;;;;;;4931244;29;20047;-48
2022/07/22 10:00:21;;;;;;;9.60;1.85;;;22.20;92.80;;;;;;4929121;29;20190;-52
2022/07/22 10:02:49;;;;;;;10.65;2.42;;;22.30;92.10;;;;;;4928520;29;20059;-56
2022/07/22 10:05:18;;;;;;;8.55;1.90;;;22.30;92.60;;;;;;4927497;29;20054;-51
2022/07/22 10:07:45;;;;;;;13.07;2.88;;;22.30;92.30;;;;;;4931036;29;20436;-50
2022/07/22 10:10:14;;;;;;;7.85;1.88;;;22.50;92.50;;;;;;4924476;29;20047;-50
2022/07/22 10:12:42;;;;;;;7.95;1.88;;;22.70;91.70;;;;;;4928137;29;20106;-49
2022/07/22 10:15:09;;;;;;;8.07;1.70;;;22.90;91.20;;;;;;4945453;28;20056;-52
2022/07/22 10:17:42;;;;;;;8.18;2.10;;;23.20;90.70;;;;;;4930758;29;20056;-53
2022/07/22 10:20:10;;;;;;;10.55;2.35;;;23.50;87.20;;;;;;4931156;29;20511;-53
2022/07/22 10:22:42;;;;;;;12.27;2.45;;;23.60;88.60;;;;;;4930641;29;20570;-51
2022/07/22 10:25:11;;;;;;;11.48;2.00;;;23.50;84.40;;;;;;4930968;29;20048;-50
2022/07/22 10:27:48;;;;;;;8.73;1.90;;;23.30;85.80;;;;;;4929306;29;20154;-52
2022/07/22 10:30:20;;;;;;;7.50;1.83;;;23.20;85.20;;;;;;4930139;29;20082;-54
2022/07/22 10:33:21;;;;;;;8.30;1.50;;;23.30;85.20;;;;;;4922782;29;20399;-55
2022/07/22 10:36:01;;;;;;;8.05;1.70;;;23.40;83.10;;;;;;4930750;29;20090;-54
2022/07/22 10:38:29;;;;;;;10.93;1.90;;;23.40;83.00;;;;;;4930704;29;20258;-50
2022/07/22 10:41:00;;;;;;;6.88;1.30;;;23.50;85.80;;;;;;4931174;29;20095;-56
2022/07/22 10:43:31;;;;;;;8.43;1.35;;;23.70;85.60;;;;;;4927324;29;20073;-53
2022/07/22 10:46:06;;;;;;;7.93;1.90;;;23.60;84.50;;;;;;4926580;29;20523;-51
2022/07/22 10:48:32;;;;;;;13.77;3.45;;;23.60;83.70;;;;;;4928728;29;20066;-54
2022/07/22 10:51:10;;;;;;;10.45;2.03;;;23.60;84.50;;;;;;4925402;29;20116;-53
2022/07/22 10:53:45;;;;;;;7.90;2.53;;;23.40;83.30;;;;;;4925448;29;20071;-52
2022/07/22 10:56:16;;;;;;;8.88;2.20;;;23.30;82.70;;;;;;4930252;29;20098;-54
2022/07/22 10:59:09;;;;;;;14.68;3.35;;;23.10;84.70;;;;;;4930423;29;20048;-56
2022/07/22 11:01:38;;;;;;;27.73;2.38;;;22.90;85.10;;;;;;4924140;29;20134;-53
2022/07/22 11:04:22;;;;;;;11.00;2.33;;;22.80;86.30;;;;;;4925816;29;20070;-55
2022/07/22 11:06:53;;;;;;;8.55;2.42;;;22.60;85.80;;;;;;4959460;28;20075;-52
2022/07/22 11:09:21;;;;;;;10.60;2.22;;;22.60;87.80;;;;;;4929871;29;20083;-54
2022/07/22 11:11:53;;;;;;;8.52;2.38;;;22.50;88.10;;;;;;4930807;29;20310;-53
2022/07/22 11:14:26;;;;;;;10.70;2.00;;;22.40;89.00;;;;;;4925811;29;20134;-54
2022/07/22 11:17:04;;;;;;;6.18;2.30;;;22.40;88.90;;;;;;4941100;29;20044;-52
2022/07/22 11:19:37;;;;;;;7.47;1.67;;;22.40;88.90;;;;;;4925979;29;20460;-55
2022/07/22 11:22:11;;;;;;;12.67;1.83;;;22.40;89.40;;;;;;4587615;28;9999962;-53
2022/07/22 11:24:38;;;;;;;7.50;2.00;;;22.40;89.00;;;;;;4927712;29;20298;-55
2022/07/22 11:27:11;;;;;;;9.63;2.10;;;22.40;89.20;;;;;;4926520;29;20208;-52
2022/07/22 11:29:40;;;;;;;4.80;1.63;;;22.30;89.50;;;;;;4926492;29;20087;-54
2022/07/22 11:32:08;;;;;;;12.13;2.20;;;22.30;89.60;;;;;;4927295;29;20052;-54
2022/07/22 11:34:37;;;;;;;17.48;2.35;;;22.30;89.90;;;;;;4927227;29;20070;-54
2022/07/22 11:37:04;;;;;;;4.93;1.30;;;22.40;90.20;;;;;;4927202;29;20044;-51
2022/07/22 11:39:31;;;;;;;11.52;2.97;;;22.40;90.20;;;;;;4927268;29;20097;-54
2022/07/22 11:41:59;;;;;;;7.57;2.00;;;22.30;90.60;;;;;;4927273;29;20110;-54
2022/07/22 11:44:28;;;;;;;16.38;2.78;;;22.30;90.80;;;;;;4927518;29;20047;-53
2022/07/22 11:46:58;;;;;;;16.83;2.20;;;22.20;91.20;;;;;;4926957;29;20127;-55
2022/07/22 11:49:29;;;;;;;13.20;2.95;;;22.20;91.50;;;;;;4927520;29;20052;-54
2022/07/22 11:51:57;;;;;;;6.68;1.67;;;22.00;91.90;;;;;;4953200;28;20051;-51
2022/07/22 11:54:23;;;;;;;10.23;2.20;;;21.90;92.10;;;;;;4926311;29;20094;-53
2022/07/22 11:56:50;;;;;;;9.65;2.08;;;21.80;92.40;;;;;;4926867;29;20142;-53
2022/07/22 11:59:23;;;;;;;10.47;1.63;;;21.70;92.70;;;;;;4926295;29;20051;-54
2022/07/22 12:01:50;;;;;;;10.75;2.47;;;21.60;93.00;;;;;;4930806;29;20286;-53
2022/07/22 12:04:19;;;;;;;8.48;2.42;;;21.60;93.30;;;;;;4930832;29;20126;-52
2022/07/22 12:06:45;;;;;;;7.75;2.50;;;21.60;93.60;;;;;;4928838;29;20303;-53
2022/07/22 12:09:19;;;;;;;10.90;2.38;;;21.60;93.70;;;;;;4945065;29;20055;-54
2022/07/22 12:11:47;;;;;;;14.38;2.63;;;21.60;94.10;;;;;;4928514;29;20075;-53
2022/07/22 12:14:19;;;;;;;7.55;2.72;;;21.60;94.70;;;;;;4916157;28;20048;-48
2022/07/22 12:17:00;;;;;;;5.07;1.75;;;21.60;95.30;;;;;;4926719;29;20075;-53
2022/07/22 12:19:30;;;;;;;8.55;2.28;;;21.60;95.80;;;;;;4924753;29;20296;-51
2022/07/22 12:22:13;;;;;;;7.28;1.65;;;21.50;95.20;;;;;;4929786;29;20047;-49
2022/07/22 12:24:42;;;;;;;12.25;2.67;;;21.40;95.20;;;;;;4918047;29;20074;-50
2022/07/22 12:27:14;;;;;;;13.30;2.03;;;21.20;95.60;;;;;;4928163;29;20052;-52
2022/07/22 12:29:42;;;;;;;11.48;2.08;;;21.20;96.90;;;;;;4930042;29;20055;-52
2022/07/22 12:32:24;;;;;;;9.90;2.17;;;21.10;97.90;;;;;;4930179;29;20127;-53
2022/07/22 12:34:53;;;;;;;9.25;1.85;;;21.10;99.90;;;;;;4930164;29;20056;-51
2022/07/22 12:37:31;;;;;;;3.80;2.33;;;21.10;99.90;;;;;;4929868;29;20079;-51
2022/07/22 12:40:04;;;;;;;9.75;2.47;;;21.20;99.90;;;;;;4930214;29;20139;-53
2022/07/22 12:42:37;;;;;;;6.63;1.77;;;21.00;99.90;;;;;;4924571;29;20055;-51
2022/07/22 12:45:08;;;;;;;8.20;1.85;;;20.90;99.90;;;;;;4930047;29;20199;-52
2022/07/22 12:47:44;;;;;;;9.10;2.15;;;20.80;99.90;;;;;;4929927;29;20806;-51
2022/07/22 12:50:25;;;;;;;6.57;2.05;;;20.90;99.90;;;;;;4928110;29;20056;-53